sensor_id;sensor_type;location;lat;lon;timestamp;P1;durP1;ratioP1;P2;durP2;ratioP2
19863;SDS011;10094;48.820;9.226;2024-03-23T00:52:54;21.65;;;9.23;;
19863;SDS011;10094;48.820;9.226;2024-03-23T00:59:36;13.05;;;8.15;;
19863;SDS011;10094;48.820;9.226;2024-03-23T01:06:19;12.75;;;8.13;;
19863;SDS011;10094;48.820;9.226;2024-03-23T01:13:01;16.85;;;9.10;;
19863;SDS011;10094;48.820;9.226;2024-03-23T01:19:44;15.70;;;8.25;;
19863;SDS011;10094;48.820;9.226;2024-03-23T01:26:27;12.48;;;8.35;;
19863;SDS011;10094;48.820;9.226;2024-03-23T01:33:10;37.05;;;26.65;;
19863;SDS011;10094;48.820;9.226;2024-03-23T01:39:52;13.02;;;8.23;;
19863;SDS011;10094;48.820;9.226;2024-03-23T01:46:35;12.55;;;8.45;;
19863;SDS011;10094;48.820;9.226;2024-03-23T01:53:18;11.60;;;7.93;;
19863;SDS011;10094;48.820;9.226;2024-03-23T02:00:03;11.07;;;7.65;;
19863;SDS011;10094;48.820;9.226;2024-03-23T02:06:53;11.57;;;7.75;;
19863;SDS011;10094;48.820;9.226;2024-03-23T02:13:35;13.75;;;10.57;;
19863;SDS011;10094;48.820;9.226;2024-03-23T02:20:18;13.95;;;7.80;;
19863;SDS011;10094;48.820;9.226;2024-03-23T02:27:01;9.55;;;4.70;;
19863;SDS011;10094;48.820;9.226;2024-03-23T02:33:44;9.75;;;4.22;;
19863;SDS011;10094;48.820;9.226;2024-03-23T02:40:27;8.27;;;3.90;;
19863;SDS011;10094;48.820;9.226;2024-03-23T02:47:10;4.47;;;3.38;;
19863;SDS011;10094;48.820;9.226;2024-03-23T02:53:52;4.00;;;2.70;;
19863;SDS011;10094;48.820;9.226;2024-03-23T03:00:35;6.32;;;3.42;;
19863;SDS011;10094;48.820;9.226;2024-03-23T03:07:17;6.95;;;3.00;;
19863;SDS011;10094;48.820;9.226;2024-03-23T03:14:00;3.70;;;2.97;;
19863;SDS011;10094;48.820;9.226;2024-03-23T03:20:42;4.18;;;2.50;;
19863;SDS011;10094;48.820;9.226;2024-03-23T03:27:25;3.65;;;2.65;;
19863;SDS011;10094;48.820;9.226;2024-03-23T03:34:08;4.00;;;2.70;;
19863;SDS011;10094;48.820;9.226;2024-03-23T03:40:50;6.85;;;3.00;;
19863;SDS011;10094;48.820;9.226;2024-03-23T03:47:34;3.75;;;2.70;;
19863;SDS011;10094;48.820;9.226;2024-03-23T03:54:16;4.20;;;2.58;;
19863;SDS011;10094;48.820;9.226;2024-03-23T04:00:59;2.88;;;2.30;;
19863;SDS011;10094;48.820;9.226;2024-03-23T04:07:41;5.68;;;2.40;;
19863;SDS011;10094;48.820;9.226;2024-03-23T04:14:24;4.60;;;3.05;;
19863;SDS011;10094;48.820;9.226;2024-03-23T04:21:06;3.72;;;2.75;;
19863;SDS011;10094;48.820;9.226;2024-03-23T04:27:49;6.47;;;2.50;;
19863;SDS011;10094;48.820;9.226;2024-03-23T04:34:32;4.45;;;2.92;;
19863;SDS011;10094;48.820;9.226;2024-03-23T04:41:16;5.47;;;3.15;;
19863;SDS011;10094;48.820;9.226;2024-03-23T04:47:58;5.60;;;3.78;;
19863;SDS011;10094;48.820;9.226;2024-03-23T04:54:41;6.07;;;4.63;;
19863;SDS011;10094;48.820;9.226;2024-03-23T05:01:23;6.72;;;5.13;;
19863;SDS011;10094;48.820;9.226;2024-03-23T05:08:07;11.65;;;7.03;;
19863;SDS011;10094;48.820;9.226;2024-03-23T05:14:50;14.25;;;8.70;;
19863;SDS011;10094;48.820;9.226;2024-03-23T05:21:33;14.90;;;10.02;;
19863;SDS011;10094;48.820;9.226;2024-03-23T05:28:16;16.35;;;11.20;;
19863;SDS011;10094;48.820;9.226;2024-03-23T05:34:58;14.80;;;11.43;;
19863;SDS011;10094;48.820;9.226;2024-03-23T05:41:41;14.07;;;11.30;;
19863;SDS011;10094;48.820;9.226;2024-03-23T05:48:24;14.55;;;10.93;;
19863;SDS011;10094;48.820;9.226;2024-03-23T05:55:07;13.43;;;9.98;;
19863;SDS011;10094;48.820;9.226;2024-03-23T06:01:50;10.50;;;7.53;;
19863;SDS011;10094;48.820;9.226;2024-03-23T06:08:33;9.00;;;5.03;;
19863;SDS011;10094;48.820;9.226;2024-03-23T06:15:17;5.38;;;3.50;;
19863;SDS011;10094;48.820;9.226;2024-03-23T06:22:00;3.60;;;3.05;;
19863;SDS011;10094;48.820;9.226;2024-03-23T06:28:43;3.85;;;2.63;;
19863;SDS011;10094;48.820;9.226;2024-03-23T06:35:25;3.15;;;2.35;;
19863;SDS011;10094;48.820;9.226;2024-03-23T06:42:08;2.60;;;2.10;;
19863;SDS011;10094;48.820;9.226;2024-03-23T06:48:50;2.45;;;1.75;;
19863;SDS011;10094;48.820;9.226;2024-03-23T06:55:33;3.47;;;1.60;;
19863;SDS011;10094;48.820;9.226;2024-03-23T07:02:16;1.70;;;1.20;;
19863;SDS011;10094;48.820;9.226;2024-03-23T07:08:58;1.30;;;0.95;;
19863;SDS011;10094;48.820;9.226;2024-03-23T07:15:41;1.50;;;1.08;;
19863;SDS011;10094;48.820;9.226;2024-03-23T07:22:23;1.08;;;0.98;;
19863;SDS011;10094;48.820;9.226;2024-03-23T07:29:06;2.00;;;0.82;;
19863;SDS011;10094;48.820;9.226;2024-03-23T07:35:49;1.20;;;1.05;;
19863;SDS011;10094;48.820;9.226;2024-03-23T07:42:31;1.15;;;1.00;;
19863;SDS011;10094;48.820;9.226;2024-03-23T07:49:14;1.23;;;0.98;;
19863;SDS011;10094;48.820;9.226;2024-03-23T07:55:57;1.73;;;1.10;;
19863;SDS011;10094;48.820;9.226;2024-03-23T08:02:40;0.98;;;0.80;;
19863;SDS011;10094;48.820;9.226;2024-03-23T08:09:22;1.00;;;1.00;;
19863;SDS011;10094;48.820;9.226;2024-03-23T08:16:05;0.85;;;0.70;;
19863;SDS011;10094;48.820;9.226;2024-03-23T08:22:48;0.80;;;0.80;;
19863;SDS011;10094;48.820;9.226;2024-03-23T08:29:31;1.10;;;1.00;;
19863;SDS011;10094;48.820;9.226;2024-03-23T08:36:13;2.22;;;1.10;;
19863;SDS011;10094;48.820;9.226;2024-03-23T08:42:56;3.78;;;1.10;;
19863;SDS011;10094;48.820;9.226;2024-03-23T08:49:39;1.08;;;0.90;;
19863;SDS011;10094;48.820;9.226;2024-03-23T08:56:21;4.85;;;1.73;;
19863;SDS011;10094;48.820;9.226;2024-03-23T09:03:04;3.50;;;1.70;;
19863;SDS011;10094;48.820;9.226;2024-03-23T09:09:46;3.03;;;1.60;;
19863;SDS011;10094;48.820;9.226;2024-03-23T09:16:29;3.00;;;1.80;;
19863;SDS011;10094;48.820;9.226;2024-03-23T09:23:11;5.30;;;2.40;;
19863;SDS011;10094;48.820;9.226;2024-03-23T09:29:54;2.85;;;2.15;;
19863;SDS011;10094;48.820;9.226;2024-03-23T09:36:37;4.25;;;3.03;;
19863;SDS011;10094;48.820;9.226;2024-03-23T09:43:19;6.97;;;2.60;;
19863;SDS011;10094;48.820;9.226;2024-03-23T09:50:02;5.50;;;2.28;;
19863;SDS011;10094;48.820;9.226;2024-03-23T09:56:46;3.42;;;1.95;;
19863;SDS011;10094;48.820;9.226;2024-03-23T10:03:29;6.20;;;3.05;;
19863;SDS011;10094;48.820;9.226;2024-03-23T10:10:12;5.10;;;2.20;;
19863;SDS011;10094;48.820;9.226;2024-03-23T10:16:56;5.07;;;2.88;;
19863;SDS011;10094;48.820;9.226;2024-03-23T10:23:55;4.90;;;3.08;;
19863;SDS011;10094;48.820;9.226;2024-03-23T10:30:37;9.25;;;3.35;;
19863;SDS011;10094;48.820;9.226;2024-03-23T10:37:20;3.75;;;2.58;;
19863;SDS011;10094;48.820;9.226;2024-03-23T10:44:02;6.05;;;3.05;;
19863;SDS011;10094;48.820;9.226;2024-03-23T10:50:47;5.90;;;2.80;;
19863;SDS011;10094;48.820;9.226;2024-03-23T10:57:32;5.95;;;2.92;;
19863;SDS011;10094;48.820;9.226;2024-03-23T11:04:29;6.85;;;4.15;;
19863;SDS011;10094;48.820;9.226;2024-03-23T11:11:12;5.72;;;3.10;;
19863;SDS011;10094;48.820;9.226;2024-03-23T11:18:02;5.43;;;3.25;;
19863;SDS011;10094;48.820;9.226;2024-03-23T11:24:50;4.43;;;3.42;;
19863;SDS011;10094;48.820;9.226;2024-03-23T11:31:32;5.90;;;2.88;;
19863;SDS011;10094;48.820;9.226;2024-03-23T11:38:16;7.22;;;2.67;;
19863;SDS011;10094;48.820;9.226;2024-03-23T11:45:07;3.88;;;2.03;;
19863;SDS011;10094;48.820;9.226;2024-03-23T11:51:51;3.92;;;2.30;;
19863;SDS011;10094;48.820;9.226;2024-03-23T11:58:36;3.90;;;2.15;;
19863;SDS011;10094;48.820;9.226;2024-03-23T12:05:19;2.60;;;1.65;;
19863;SDS011;10094;48.820;9.226;2024-03-23T12:12:16;4.65;;;1.92;;
19863;SDS011;10094;48.820;9.226;2024-03-23T12:19:04;6.57;;;2.42;;
19863;SDS011;10094;48.820;9.226;2024-03-23T12:25:48;5.32;;;1.83;;
19863;SDS011;10094;48.820;9.226;2024-03-23T12:32:34;4.60;;;2.20;;
19863;SDS011;10094;48.820;9.226;2024-03-23T12:39:17;11.30;;;2.17;;
19863;SDS011;10094;48.820;9.226;2024-03-23T12:46:00;6.32;;;2.53;;
19863;SDS011;10094;48.820;9.226;2024-03-23T12:52:43;6.20;;;2.20;;
19863;SDS011;10094;48.820;9.226;2024-03-23T12:59:25;6.95;;;2.40;;
19863;SDS011;10094;48.820;9.226;2024-03-23T13:06:10;6.10;;;2.20;;
19863;SDS011;10094;48.820;9.226;2024-03-23T13:12:53;6.50;;;2.55;;
19863;SDS011;10094;48.820;9.226;2024-03-23T13:19:36;7.25;;;2.63;;
19863;SDS011;10094;48.820;9.226;2024-03-23T13:26:21;4.53;;;2.22;;
19863;SDS011;10094;48.820;9.226;2024-03-23T13:33:04;6.82;;;2.42;;
19863;SDS011;10094;48.820;9.226;2024-03-23T13:39:47;4.60;;;2.40;;
19863;SDS011;10094;48.820;9.226;2024-03-23T13:46:29;5.70;;;2.22;;
19863;SDS011;10094;48.820;9.226;2024-03-23T13:53:12;10.30;;;2.40;;
19863;SDS011;10094;48.820;9.226;2024-03-23T13:59:54;6.13;;;2.00;;
19863;SDS011;10094;48.820;9.226;2024-03-23T14:06:37;2.80;;;1.55;;
19863;SDS011;10094;48.820;9.226;2024-03-23T14:13:19;6.55;;;1.77;;
19863;SDS011;10094;48.820;9.226;2024-03-23T14:20:02;3.08;;;1.60;;
19863;SDS011;10094;48.820;9.226;2024-03-23T14:26:53;4.95;;;1.88;;
19863;SDS011;10094;48.820;9.226;2024-03-23T14:33:39;4.32;;;1.48;;
19863;SDS011;10094;48.820;9.226;2024-03-23T14:40:28;2.83;;;1.63;;
19863;SDS011;10094;48.820;9.226;2024-03-23T14:47:11;2.42;;;1.40;;
19863;SDS011;10094;48.820;9.226;2024-03-23T14:53:54;3.13;;;1.60;;
19863;SDS011;10094;48.820;9.226;2024-03-23T15:00:36;6.07;;;2.13;;
19863;SDS011;10094;48.820;9.226;2024-03-23T15:07:19;6.05;;;2.22;;
19863;SDS011;10094;48.820;9.226;2024-03-23T15:14:02;3.38;;;1.60;;
19863;SDS011;10094;48.820;9.226;2024-03-23T15:20:58;2.97;;;1.33;;
19863;SDS011;10094;48.820;9.226;2024-03-23T15:27:47;2.33;;;1.42;;
19863;SDS011;10094;48.820;9.226;2024-03-23T15:34:32;2.47;;;1.23;;
19863;SDS011;10094;48.820;9.226;2024-03-23T15:41:15;3.47;;;1.50;;
19863;SDS011;10094;48.820;9.226;2024-03-23T15:47:58;3.05;;;1.60;;
19863;SDS011;10094;48.820;9.226;2024-03-23T15:54:43;2.15;;;1.27;;
19863;SDS011;10094;48.820;9.226;2024-03-23T16:01:26;1.45;;;1.20;;
19863;SDS011;10094;48.820;9.226;2024-03-23T16:08:08;3.25;;;1.60;;
19863;SDS011;10094;48.820;9.226;2024-03-23T16:14:51;4.95;;;1.75;;
19863;SDS011;10094;48.820;9.226;2024-03-23T16:21:34;2.15;;;1.10;;
19863;SDS011;10094;48.820;9.226;2024-03-23T16:28:16;3.95;;;1.27;;
19863;SDS011;10094;48.820;9.226;2024-03-23T16:34:59;4.95;;;2.00;;
19863;SDS011;10094;48.820;9.226;2024-03-23T16:41:42;1.63;;;1.10;;
19863;SDS011;10094;48.820;9.226;2024-03-23T16:48:25;3.13;;;1.10;;
19863;SDS011;10094;48.820;9.226;2024-03-23T16:55:08;3.10;;;1.13;;
19863;SDS011;10094;48.820;9.226;2024-03-23T17:01:51;2.47;;;1.00;;
19863;SDS011;10094;48.820;9.226;2024-03-23T17:08:34;3.72;;;1.65;;
19863;SDS011;10094;48.820;9.226;2024-03-23T17:15:16;3.25;;;1.85;;
19863;SDS011;10094;48.820;9.226;2024-03-23T17:22:02;3.05;;;1.80;;
19863;SDS011;10094;48.820;9.226;2024-03-23T17:28:47;4.10;;;2.30;;
19863;SDS011;10094;48.820;9.226;2024-03-23T17:35:30;8.02;;;3.35;;
19863;SDS011;10094;48.820;9.226;2024-03-23T17:42:13;3.80;;;2.20;;
19863;SDS011;10094;48.820;9.226;2024-03-23T17:48:56;1.85;;;1.40;;
19863;SDS011;10094;48.820;9.226;2024-03-23T17:55:40;2.23;;;1.23;;
19863;SDS011;10094;48.820;9.226;2024-03-23T18:02:23;7.75;;;4.03;;
19863;SDS011;10094;48.820;9.226;2024-03-23T18:09:06;2.90;;;2.08;;
19863;SDS011;10094;48.820;9.226;2024-03-23T18:15:57;3.90;;;1.50;;
19863;SDS011;10094;48.820;9.226;2024-03-23T18:22:40;2.40;;;1.10;;
19863;SDS011;10094;48.820;9.226;2024-03-23T18:29:22;3.60;;;2.25;;
19863;SDS011;10094;48.820;9.226;2024-03-23T18:36:05;10.40;;;6.65;;
19863;SDS011;10094;48.820;9.226;2024-03-23T18:42:48;7.88;;;3.67;;
19863;SDS011;10094;48.820;9.226;2024-03-23T18:49:30;4.60;;;1.60;;
19863;SDS011;10094;48.820;9.226;2024-03-23T18:56:14;2.20;;;1.33;;
19863;SDS011;10094;48.820;9.226;2024-03-23T19:02:57;2.78;;;1.70;;
19863;SDS011;10094;48.820;9.226;2024-03-23T19:09:40;6.90;;;2.00;;
19863;SDS011;10094;48.820;9.226;2024-03-23T19:16:23;3.95;;;2.05;;
19863;SDS011;10094;48.820;9.226;2024-03-23T19:23:06;3.53;;;2.00;;
19863;SDS011;10094;48.820;9.226;2024-03-23T19:29:52;4.32;;;2.22;;
19863;SDS011;10094;48.820;9.226;2024-03-23T19:36:35;7.32;;;3.28;;
19863;SDS011;10094;48.820;9.226;2024-03-23T19:43:18;6.40;;;2.80;;
19863;SDS011;10094;48.820;9.226;2024-03-23T20:13:10;7.70;;;5.43;;
19863;SDS011;10094;48.820;9.226;2024-03-23T20:19:53;4.13;;;2.13;;
19863;SDS011;10094;48.820;9.226;2024-03-23T20:26:36;5.60;;;2.67;;
19863;SDS011;10094;48.820;9.226;2024-03-23T20:33:19;4.22;;;2.70;;
19863;SDS011;10094;48.820;9.226;2024-03-23T20:40:02;8.73;;;4.20;;
19863;SDS011;10094;48.820;9.226;2024-03-23T20:46:45;3.28;;;2.28;;
19863;SDS011;10094;48.820;9.226;2024-03-23T20:53:28;3.40;;;2.58;;
19863;SDS011;10094;48.820;9.226;2024-03-23T21:00:15;2.80;;;2.05;;
19863;SDS011;10094;48.820;9.226;2024-03-23T21:06:58;4.75;;;3.03;;
19863;SDS011;10094;48.820;9.226;2024-03-23T21:13:41;2.30;;;1.70;;
19863;SDS011;10094;48.820;9.226;2024-03-23T21:20:24;5.53;;;1.42;;
19863;SDS011;10094;48.820;9.226;2024-03-23T21:27:07;4.57;;;1.80;;
19863;SDS011;10094;48.820;9.226;2024-03-23T21:33:51;2.00;;;1.60;;
19863;SDS011;10094;48.820;9.226;2024-03-23T21:40:35;1.73;;;1.52;;
19863;SDS011;10094;48.820;9.226;2024-03-23T21:47:19;3.83;;;1.52;;
19863;SDS011;10094;48.820;9.226;2024-03-23T21:54:02;3.10;;;1.70;;
19863;SDS011;10094;48.820;9.226;2024-03-23T22:00:44;3.80;;;1.95;;
19863;SDS011;10094;48.820;9.226;2024-03-23T22:07:27;3.60;;;1.70;;
19863;SDS011;10094;48.820;9.226;2024-03-23T22:14:09;2.90;;;1.80;;
19863;SDS011;10094;48.820;9.226;2024-03-23T22:20:55;2.72;;;1.75;;
19863;SDS011;10094;48.820;9.226;2024-03-23T22:27:39;5.00;;;1.98;;
19863;SDS011;10094;48.820;9.226;2024-03-23T22:34:21;3.85;;;2.15;;
19863;SDS011;10094;48.820;9.226;2024-03-23T22:41:04;5.75;;;2.83;;
19863;SDS011;10094;48.820;9.226;2024-03-23T22:47:48;2.67;;;1.77;;
19863;SDS011;10094;48.820;9.226;2024-03-23T22:54:30;1.95;;;1.70;;
19863;SDS011;10094;48.820;9.226;2024-03-23T23:01:13;2.67;;;1.50;;
19863;SDS011;10094;48.820;9.226;2024-03-23T23:07:55;2.85;;;1.60;;
19863;SDS011;10094;48.820;9.226;2024-03-23T23:14:38;4.13;;;1.60;;
19863;SDS011;10094;48.820;9.226;2024-03-23T23:21:20;5.63;;;1.75;;
19863;SDS011;10094;48.820;9.226;2024-03-23T23:28:03;3.70;;;1.80;;
19863;SDS011;10094;48.820;9.226;2024-03-23T23:34:46;2.13;;;1.75;;
19863;SDS011;10094;48.820;9.226;2024-03-23T23:41:28;6.22;;;3.13;;
19863;SDS011;10094;48.820;9.226;2024-03-23T23:48:12;1.67;;;1.58;;
19863;SDS011;10094;48.820;9.226;2024-03-23T23:54:56;4.13;;;1.27;;
